createdAt,value
2023-04-22T00:01:53.561Z,3.75
2023-04-22T00:04:21.477Z,3.78
2023-04-22T00:06:48.629Z,3.45
2023-04-22T00:09:15.571Z,3.38
2023-04-22T00:11:42.454Z,3.80
2023-04-22T00:14:09.395Z,3.67
2023-04-22T00:16:36.444Z,3.65
2023-04-22T00:19:04.984Z,3.83
2023-04-22T00:21:32.576Z,3.70
2023-04-22T00:23:59.456Z,4.07
2023-04-22T00:26:26.464Z,3.78
2023-04-22T00:28:53.441Z,4.10
2023-04-22T00:31:20.505Z,3.90
2023-04-22T00:33:47.364Z,3.85
2023-04-22T00:36:14.309Z,3.88
2023-04-22T00:38:46.655Z,3.72
2023-04-22T00:41:13.710Z,3.83
2023-04-22T00:43:40.652Z,3.92
2023-04-22T00:46:07.773Z,3.85
2023-04-22T00:48:37.096Z,3.58
2023-04-22T00:51:04.389Z,3.63
2023-04-22T00:53:31.270Z,4.00
2023-04-22T00:55:59.107Z,3.78
2023-04-22T00:58:28.969Z,4.10
2023-04-22T01:00:56.200Z,3.88
2023-04-22T01:03:24.220Z,3.70
2023-04-22T01:05:51.637Z,3.97
2023-04-22T01:08:18.550Z,3.63
2023-04-22T01:10:45.853Z,4.00
2023-04-22T01:13:12.924Z,4.18
2023-04-22T01:15:40.340Z,3.38
2023-04-22T01:18:07.679Z,3.90
2023-04-22T01:20:34.682Z,3.88
2023-04-22T01:23:04.396Z,3.80
2023-04-22T01:25:31.333Z,3.72
2023-04-22T01:27:58.811Z,4.35
2023-04-22T01:30:26.102Z,4.32
2023-04-22T01:32:53.307Z,4.40
2023-04-22T01:35:20.340Z,3.70
2023-04-22T01:37:47.236Z,4.70
2023-04-22T01:40:16.581Z,3.97
2023-04-22T01:42:43.465Z,4.07
2023-04-22T01:45:11.235Z,3.90
2023-04-22T01:47:38.214Z,4.28
2023-04-22T01:50:05.656Z,4.22
2023-04-22T01:52:32.738Z,4.15
2023-04-22T01:55:01.403Z,4.10
2023-04-22T01:57:28.297Z,4.50
2023-04-22T01:59:56.597Z,3.78
2023-04-22T02:02:23.702Z,4.35
2023-04-22T02:04:50.756Z,4.40
2023-04-22T02:07:17.646Z,4.00
2023-04-22T02:09:44.834Z,4.40
2023-04-22T02:12:11.748Z,4.22
2023-04-22T02:14:38.650Z,4.45
2023-04-22T02:17:05.557Z,4.57
2023-04-22T02:19:32.419Z,4.32
2023-04-22T02:21:59.335Z,4.80
2023-04-22T02:24:26.847Z,4.55
2023-04-22T02:26:53.767Z,4.75
2023-04-22T02:29:20.686Z,4.57
2023-04-22T02:31:47.738Z,4.65
2023-04-22T02:34:14.717Z,4.65
2023-04-22T02:36:41.586Z,4.68
2023-04-22T02:39:08.462Z,4.32
2023-04-22T02:41:35.551Z,4.82
2023-04-22T02:44:02.508Z,4.78
2023-04-22T02:46:29.472Z,4.25
2023-04-22T02:48:56.441Z,4.13
2023-04-22T02:51:23.820Z,4.93
2023-04-22T02:53:50.706Z,4.07
2023-04-22T02:56:17.596Z,4.03
2023-04-22T02:58:44.476Z,4.40
2023-04-22T03:01:11.910Z,4.32
2023-04-22T03:03:39.063Z,4.50
2023-04-22T03:06:06.389Z,4.25
2023-04-22T03:08:33.483Z,4.50
2023-04-22T03:11:00.391Z,4.35
2023-04-22T03:13:27.295Z,4.07
2023-04-22T03:15:54.173Z,4.13
2023-04-22T03:18:21.104Z,4.18
2023-04-22T03:20:49.439Z,4.13
2023-04-22T03:23:16.313Z,4.30
2023-04-22T03:25:43.138Z,4.75
2023-04-22T03:28:09.987Z,4.30
2023-04-22T03:30:36.876Z,4.35
2023-04-22T03:33:03.847Z,4.38
2023-04-22T03:35:31.018Z,4.18
2023-04-22T03:37:57.892Z,4.30
2023-04-22T03:40:24.728Z,4.47
2023-04-22T03:42:51.592Z,3.90
2023-04-22T03:45:18.533Z,4.30
2023-04-22T03:47:45.802Z,4.68
2023-04-22T03:50:12.712Z,4.25
2023-04-22T03:52:39.577Z,4.47
2023-04-22T03:55:06.745Z,4.20
2023-04-22T03:57:33.606Z,4.05
2023-04-22T04:00:00.510Z,4.47
2023-04-22T04:02:27.615Z,4.30
2023-04-22T04:04:54.909Z,4.75
2023-04-22T04:07:21.934Z,4.82
2023-04-22T04:09:48.767Z,4.50
2023-04-22T04:12:15.602Z,4.53
2023-04-22T04:14:42.566Z,4.53
2023-04-22T04:17:09.804Z,4.55
2023-04-22T04:19:38.355Z,3.97
2023-04-22T04:22:05.446Z,4.25
2023-04-22T04:24:32.350Z,4.30
2023-04-22T04:26:59.310Z,4.55
2023-04-22T04:29:27.104Z,4.57
2023-04-22T04:31:53.991Z,4.78
2023-04-22T04:34:20.946Z,4.95
2023-04-22T04:36:47.911Z,4.38
2023-04-22T04:39:17.908Z,4.68
2023-04-22T04:41:45.271Z,4.72
2023-04-22T04:44:12.314Z,4.78
2023-04-22T04:46:39.574Z,4.40
2023-04-22T04:49:09.511Z,4.60
2023-04-22T04:51:36.375Z,4.22
2023-04-22T04:54:03.252Z,4.68
2023-04-22T04:56:31.017Z,4.70
2023-04-22T04:58:58.201Z,4.30
2023-04-22T05:01:25.343Z,4.40
2023-04-22T05:03:52.471Z,4.28
2023-04-22T05:06:19.494Z,4.68
2023-04-22T05:08:46.394Z,4.50
2023-04-22T05:11:13.490Z,4.07
2023-04-22T05:13:40.469Z,5.00
2023-04-22T05:16:07.540Z,4.30
2023-04-22T05:18:34.542Z,4.85
2023-04-22T05:21:04.337Z,4.57
2023-04-22T05:23:31.317Z,4.40
2023-04-22T05:25:58.826Z,4.05
2023-04-22T05:28:25.775Z,4.35
2023-04-22T05:30:52.704Z,4.75
2023-04-22T05:33:19.554Z,4.75
2023-04-22T05:35:46.528Z,4.43
2023-04-22T05:38:13.474Z,4.55
2023-04-22T05:40:40.686Z,4.47
2023-04-22T05:43:07.595Z,4.32
2023-04-22T05:45:34.736Z,3.72
2023-04-22T05:48:01.673Z,4.13
2023-04-22T05:50:28.749Z,3.88
2023-04-22T05:52:55.837Z,4.05
2023-04-22T05:55:22.747Z,4.22
2023-04-22T05:57:50.788Z,3.72
2023-04-22T06:00:18.148Z,4.18
2023-04-22T06:02:45.268Z,4.20
2023-04-22T06:05:12.392Z,5.15
2023-04-22T06:07:40.022Z,4.57
2023-04-22T06:10:07.691Z,5.07
2023-04-22T06:12:34.779Z,4.57
2023-04-22T06:15:01.665Z,4.40
2023-04-22T06:17:28.571Z,4.40
2023-04-22T06:19:55.660Z,4.82
2023-04-22T06:22:22.545Z,4.70
2023-04-22T06:24:49.465Z,4.25
2023-04-22T06:27:17.159Z,5.03
2023-04-22T06:29:44.039Z,4.85
2023-04-22T06:32:10.911Z,4.63
2023-04-22T06:34:38.835Z,5.07
2023-04-22T06:37:06.376Z,4.15
2023-04-22T06:39:33.250Z,4.50
2023-04-22T06:42:01.629Z,4.45
2023-04-22T06:44:29.176Z,4.80
2023-04-22T06:46:57.959Z,4.60
2023-04-22T06:49:25.226Z,4.55
2023-04-22T06:51:52.078Z,4.47
2023-04-22T06:54:19.036Z,4.68
2023-04-22T06:56:46.001Z,4.45
2023-04-22T06:59:13.008Z,4.68
2023-04-22T07:01:39.886Z,4.75
2023-04-22T07:04:06.918Z,5.57
2023-04-22T07:06:33.834Z,5.47
2023-04-22T07:09:00.748Z,5.63
2023-04-22T07:11:27.909Z,6.47
2023-04-22T07:13:54.791Z,5.60
2023-04-22T07:16:21.777Z,5.40
2023-04-22T07:18:48.930Z,4.88
2023-04-22T07:21:15.764Z,4.45
2023-04-22T07:23:42.624Z,4.82
2023-04-22T07:26:09.535Z,4.97
2023-04-22T07:28:36.460Z,4.53
2023-04-22T07:31:03.625Z,4.63
2023-04-22T07:33:30.574Z,4.72
2023-04-22T07:35:57.446Z,4.93
2023-04-22T07:38:26.109Z,4.38
2023-04-22T07:40:53.010Z,4.60
2023-04-22T07:43:20.097Z,4.50
2023-04-22T07:45:47.027Z,4.22
2023-04-22T07:48:13.929Z,4.43
2023-04-22T07:50:40.868Z,3.65
2023-04-22T07:53:07.745Z,4.15
2023-04-22T07:55:34.847Z,3.90
2023-04-22T07:58:06.225Z,4.25
2023-04-22T08:00:35.264Z,3.78
2023-04-22T08:03:03.843Z,3.90
2023-04-22T08:05:30.984Z,3.78
2023-04-22T08:07:57.926Z,3.63
2023-04-22T08:10:24.958Z,4.03
2023-04-22T08:12:51.821Z,3.92
2023-04-22T08:15:18.782Z,3.83
2023-04-22T08:17:46.037Z,3.22
2023-04-22T08:20:15.368Z,3.85
2023-04-22T08:22:45.437Z,3.10
2023-04-22T08:25:12.365Z,3.50
2023-04-22T08:27:39.341Z,3.50
2023-04-22T08:30:07.509Z,3.55
2023-04-22T08:32:34.493Z,2.90
2023-04-22T08:35:04.644Z,3.20
2023-04-22T08:37:32.613Z,3.00
2023-04-22T08:39:59.518Z,2.70
2023-04-22T08:42:27.589Z,2.70
2023-04-22T08:44:54.920Z,3.22
2023-04-22T08:47:22.462Z,2.88
2023-04-22T08:49:52.663Z,2.50
2023-04-22T08:52:19.662Z,2.60
2023-04-22T08:54:46.580Z,2.65
2023-04-22T08:57:14.994Z,2.42
2023-04-22T08:59:42.639Z,2.90
2023-04-22T09:02:23.789Z,3.35
2023-04-22T09:04:53.642Z,3.10
2023-04-22T09:07:26.919Z,3.10
2023-04-22T09:09:56.007Z,3.08
2023-04-22T09:12:23.511Z,3.58
2023-04-22T09:14:50.576Z,3.60
2023-04-22T09:17:18.979Z,3.25
2023-04-22T09:19:46.064Z,3.90
2023-04-22T09:22:16.179Z,4.05
2023-04-22T09:24:52.193Z,3.95
2023-04-22T09:27:20.032Z,3.88
2023-04-22T09:29:50.344Z,4.00
2023-04-22T09:32:18.017Z,4.13
2023-04-22T09:34:53.778Z,3.75
2023-04-22T09:37:33.310Z,3.78
2023-04-22T09:40:06.384Z,3.40
2023-04-22T09:42:48.889Z,3.08
2023-04-22T09:45:28.951Z,3.67
2023-04-22T09:47:57.384Z,3.47
2023-04-22T09:50:26.439Z,4.13
2023-04-22T09:52:59.105Z,3.67
2023-04-22T09:55:27.433Z,3.60
2023-04-22T09:57:55.813Z,3.85
2023-04-22T10:00:26.074Z,3.92
2023-04-22T10:02:53.176Z,3.75
2023-04-22T10:05:20.821Z,3.58
2023-04-22T10:07:47.794Z,3.80
2023-04-22T10:10:14.940Z,3.20
2023-04-22T10:12:42.715Z,3.80
2023-04-22T10:15:10.547Z,3.35
2023-04-22T10:17:39.300Z,3.30
2023-04-22T10:20:13.728Z,3.05
2023-04-22T10:22:42.877Z,3.25
2023-04-22T10:25:25.712Z,3.10
2023-04-22T10:28:06.784Z,2.63
2023-04-22T10:30:37.580Z,3.33
2023-04-22T10:33:23.998Z,3.30
2023-04-22T10:36:11.185Z,3.60
2023-04-22T10:38:42.884Z,3.38
2023-04-22T10:41:16.516Z,4.22
2023-04-22T10:46:37.313Z,4.43
2023-04-22T10:49:07.985Z,4.22
2023-04-22T10:51:46.290Z,4.00
2023-04-22T10:54:37.568Z,3.88
2023-04-22T10:57:05.706Z,3.70
2023-04-22T10:59:53.840Z,3.47
2023-04-22T11:02:22.906Z,3.70
2023-04-22T11:04:50.523Z,4.10
2023-04-22T11:07:26.715Z,3.83
2023-04-22T11:09:59.279Z,4.20
2023-04-22T11:12:44.046Z,4.40
2023-04-22T11:15:19.944Z,4.68
2023-04-22T11:17:50.547Z,4.00
2023-04-22T11:20:18.296Z,4.20
2023-04-22T11:22:51.362Z,4.10
2023-04-22T11:25:18.919Z,4.57
2023-04-22T11:27:46.459Z,4.20
2023-04-22T11:30:16.519Z,4.28
2023-04-22T11:32:48.816Z,4.40
2023-04-22T11:35:19.819Z,4.50
2023-04-22T11:37:58.425Z,3.92
2023-04-22T11:40:31.647Z,4.30
2023-04-22T11:43:01.656Z,4.20
2023-04-22T11:45:34.072Z,4.10
2023-04-22T11:48:02.067Z,3.50
2023-04-22T11:50:37.099Z,3.30
2023-04-22T11:53:13.320Z,3.55
2023-04-22T11:55:41.739Z,3.20
2023-04-22T11:58:09.879Z,3.08
2023-04-22T12:00:43.171Z,3.30
2023-04-22T12:03:20.523Z,3.20
2023-04-22T12:05:54.512Z,3.25
2023-04-22T12:08:26.823Z,3.50
2023-04-22T12:10:56.489Z,3.40
2023-04-22T12:13:31.726Z,3.03
2023-04-22T12:16:04.572Z,3.03
2023-04-22T12:18:39.779Z,2.90
2023-04-22T12:21:11.099Z,2.75
2023-04-22T12:23:45.941Z,2.42
2023-04-22T12:26:13.783Z,2.65
2023-04-22T12:28:42.071Z,2.72
2023-04-22T12:31:09.822Z,3.08
2023-04-22T12:33:37.747Z,3.20
2023-04-22T12:36:05.976Z,2.85
2023-04-22T12:38:33.303Z,2.67
2023-04-22T12:41:00.649Z,3.35
2023-04-22T12:43:27.537Z,3.13
2023-04-22T12:45:54.509Z,2.90
2023-04-22T12:48:21.454Z,2.63
2023-04-22T12:50:48.390Z,2.90
2023-04-22T12:53:16.308Z,2.88
2023-04-22T12:55:45.856Z,2.65
2023-04-22T12:58:13.101Z,2.97
2023-04-22T13:00:40.732Z,3.15
2023-04-22T13:03:07.971Z,7.70
2023-04-22T13:05:35.155Z,12.73
2023-04-22T13:08:07.226Z,3.90
2023-04-22T13:10:35.784Z,2.30
2023-04-22T13:15:34.462Z,2.10
2023-04-22T13:18:02.299Z,2.45
2023-04-22T13:20:29.389Z,2.72
2023-04-22T13:22:56.391Z,2.40
2023-04-22T13:25:23.256Z,2.67
2023-04-22T13:27:50.664Z,2.40
2023-04-22T13:30:17.520Z,2.08
2023-04-22T13:32:44.444Z,2.38
2023-04-22T13:35:11.508Z,2.30
2023-04-22T13:37:38.512Z,2.40
2023-04-22T13:40:06.265Z,1.92
2023-04-22T13:42:33.166Z,2.30
2023-04-22T13:45:00.029Z,2.33
2023-04-22T13:47:27.018Z,2.10
2023-04-22T13:49:53.960Z,2.20
2023-04-22T13:52:20.926Z,2.33
2023-04-22T13:54:47.827Z,2.40
2023-04-22T13:57:14.799Z,2.30
2023-04-22T13:59:42.229Z,2.47
2023-04-22T14:02:09.520Z,2.42
2023-04-22T14:04:36.496Z,2.80
2023-04-22T14:07:04.119Z,2.80
2023-04-22T14:09:31.328Z,2.65
2023-04-22T14:11:58.908Z,3.25
2023-04-22T14:14:26.069Z,2.25
2023-04-22T14:16:53.022Z,2.20
2023-04-22T14:19:20.337Z,2.25
2023-04-22T14:21:47.716Z,2.50
2023-04-22T14:24:14.875Z,2.50
2023-04-22T14:26:41.809Z,1.92
2023-04-22T14:29:08.802Z,2.20
2023-04-22T14:31:35.941Z,2.55
2023-04-22T14:34:02.993Z,2.10
2023-04-22T14:36:30.017Z,2.65
2023-04-22T14:38:56.920Z,2.78
2023-04-22T14:41:24.849Z,2.60
2023-04-22T14:43:51.784Z,2.80
2023-04-22T14:46:18.736Z,3.13
2023-04-22T14:48:45.714Z,2.83
2023-04-22T14:51:12.605Z,2.58
2023-04-22T14:53:40.959Z,2.78
2023-04-22T14:56:08.187Z,2.55
2023-04-22T14:58:35.058Z,2.92
2023-04-22T15:01:02.033Z,2.88
2023-04-22T15:03:29.170Z,2.95
2023-04-22T15:05:56.290Z,3.00
2023-04-22T15:08:25.378Z,2.88
2023-04-22T15:10:52.347Z,2.65
2023-04-22T15:13:19.905Z,3.40
2023-04-22T15:15:47.183Z,2.88
2023-04-22T15:18:14.286Z,2.50
2023-04-22T15:20:41.501Z,3.30
2023-04-22T15:23:08.385Z,3.13
2023-04-22T15:25:35.881Z,3.38
2023-04-22T15:28:03.228Z,2.90
2023-04-22T15:30:30.365Z,3.15
2023-04-22T15:32:57.419Z,3.50
2023-04-22T15:35:24.574Z,3.33
2023-04-22T15:37:52.696Z,3.30
2023-04-22T15:40:19.811Z,3.38
2023-04-22T15:42:46.777Z,3.50
2023-04-22T15:45:13.705Z,3.28
2023-04-22T15:47:41.731Z,3.72
2023-04-22T15:50:09.769Z,3.20
2023-04-22T15:52:38.090Z,3.45
2023-04-22T15:55:08.359Z,3.60
2023-04-22T15:57:35.621Z,3.20
2023-04-22T16:00:13.125Z,2.85
2023-04-22T16:02:41.888Z,3.22
2023-04-22T16:05:09.320Z,3.00
2023-04-22T16:07:36.269Z,2.75
2023-04-22T16:10:03.623Z,2.70
2023-04-22T16:12:33.541Z,3.55
2023-04-22T16:15:01.616Z,2.83
2023-04-22T16:17:28.927Z,2.65
2023-04-22T16:19:55.999Z,2.80
2023-04-22T16:22:23.193Z,2.25
2023-04-22T16:24:50.073Z,2.38
2023-04-22T16:27:18.611Z,3.08
2023-04-22T16:29:46.149Z,2.35
2023-04-22T16:32:13.104Z,2.55
2023-04-22T16:34:40.087Z,2.28
2023-04-22T16:37:07.065Z,2.33
2023-04-22T16:39:34.058Z,2.60
2023-04-22T16:42:02.363Z,2.55
2023-04-22T16:44:29.389Z,2.55
2023-04-22T16:46:56.269Z,3.00
2023-04-22T16:49:23.221Z,2.22
2023-04-22T16:51:50.435Z,2.35
2023-04-22T16:54:17.323Z,2.22
2023-04-22T16:56:44.260Z,2.40
2023-04-22T16:59:11.206Z,2.20
2023-04-22T17:01:38.142Z,2.15
2023-04-22T17:04:05.123Z,2.30
2023-04-22T17:06:32.596Z,2.45
2023-04-22T17:09:00.033Z,2.30
2023-04-22T17:11:26.939Z,2.50
2023-04-22T17:13:53.926Z,2.25
2023-04-22T17:16:21.078Z,2.50
2023-04-22T17:18:48.237Z,2.15
2023-04-22T17:21:16.868Z,2.30
2023-04-22T17:23:43.814Z,2.50
2023-04-22T17:26:10.644Z,2.47
2023-04-22T17:28:37.555Z,2.60
2023-04-22T17:31:04.471Z,2.70
2023-04-22T17:33:31.427Z,2.60
2023-04-22T17:35:58.363Z,2.90
2023-04-22T17:38:25.261Z,2.47
2023-04-22T17:40:52.137Z,2.58
2023-04-22T17:43:19.026Z,2.50
2023-04-22T17:45:45.911Z,2.88
2023-04-22T17:48:12.796Z,2.80
2023-04-22T17:50:39.701Z,2.80
2023-04-22T17:53:06.749Z,2.80
2023-04-22T17:55:36.693Z,2.92
2023-04-22T17:58:04.630Z,2.88
2023-04-22T18:00:33.460Z,2.95
2023-04-22T18:03:00.720Z,2.97
2023-04-22T18:05:27.907Z,3.05
2023-04-22T18:08:01.693Z,2.90
2023-04-22T18:10:29.469Z,3.22
2023-04-22T18:12:56.345Z,2.97
2023-04-22T18:15:23.646Z,3.10
2023-04-22T18:17:51.251Z,3.28
2023-04-22T18:20:19.869Z,3.33
2023-04-22T18:22:49.000Z,3.03
2023-04-22T18:25:17.026Z,3.20
2023-04-22T18:27:44.221Z,2.85
2023-04-22T18:30:11.467Z,2.95
2023-04-22T18:32:38.653Z,2.85
2023-04-22T18:35:06.340Z,2.85
2023-04-22T18:37:34.881Z,3.13
2023-04-22T18:40:02.672Z,2.83
2023-04-22T18:42:29.971Z,2.80
2023-04-22T18:44:56.996Z,2.65
2023-04-22T18:47:23.942Z,2.55
2023-04-22T18:49:50.969Z,2.67
2023-04-22T18:52:18.401Z,2.42
2023-04-22T18:54:45.395Z,2.80
2023-04-22T18:57:12.469Z,2.53
2023-04-22T18:59:39.814Z,2.88
2023-04-22T19:02:06.813Z,2.40
2023-04-22T19:04:33.778Z,2.60
2023-04-22T19:07:01.029Z,2.55
2023-04-22T19:09:27.982Z,2.40
2023-04-22T19:11:55.561Z,3.10
2023-04-22T19:14:22.517Z,3.08
2023-04-22T19:16:49.542Z,3.25
2023-04-22T19:19:16.502Z,2.80
2023-04-22T19:21:43.596Z,2.92
2023-04-22T19:24:10.867Z,2.90
2023-04-22T19:26:37.853Z,2.60
2023-04-22T19:29:04.732Z,3.20
2023-04-22T19:31:32.188Z,2.60
2023-04-22T19:33:59.526Z,2.50
2023-04-22T19:36:27.043Z,2.53
2023-04-22T19:38:54.015Z,2.53
2023-04-22T19:41:21.719Z,2.30
2023-04-22T19:43:48.691Z,2.33
2023-04-22T19:46:15.570Z,2.30
2023-04-22T19:48:42.671Z,2.45
2023-04-22T19:51:11.197Z,2.20
2023-04-22T19:53:41.236Z,2.58
2023-04-22T19:56:09.325Z,2.53
2023-04-22T19:58:36.609Z,2.70
2023-04-22T20:01:04.331Z,2.60
2023-04-22T20:03:31.648Z,2.75
2023-04-22T20:05:59.514Z,2.90
2023-04-22T20:08:27.994Z,2.88
2023-04-22T20:10:55.746Z,2.63
2023-04-22T20:13:23.232Z,2.25
2023-04-22T20:15:50.898Z,2.55
2023-04-22T20:18:17.907Z,2.40
2023-04-22T20:20:48.037Z,2.63
2023-04-22T20:23:15.590Z,2.35
2023-04-22T20:25:47.061Z,2.58
2023-04-22T20:28:14.368Z,2.20
2023-04-22T20:30:41.605Z,2.30
2023-04-22T20:33:12.193Z,2.65
2023-04-22T20:35:40.376Z,2.45
2023-04-22T20:38:09.858Z,2.42
2023-04-22T20:40:36.901Z,2.65
2023-04-22T20:43:03.805Z,2.67
2023-04-22T20:45:31.330Z,2.90
2023-04-22T20:47:58.495Z,2.60
2023-04-22T20:50:26.535Z,2.40
2023-04-22T20:52:53.495Z,2.25
2023-04-22T20:55:20.358Z,2.80
2023-04-22T20:57:47.230Z,2.30
2023-04-22T21:00:14.738Z,2.40
2023-04-22T21:02:43.409Z,2.30
2023-04-22T21:05:11.430Z,2.05
2023-04-22T21:07:43.139Z,2.22
2023-04-22T21:10:10.513Z,2.38
2023-04-22T21:12:38.331Z,2.25
2023-04-22T21:15:06.171Z,2.40
2023-04-22T21:17:35.559Z,2.42
2023-04-22T21:20:05.400Z,2.40
2023-04-22T21:22:32.842Z,2.20
2023-04-22T21:25:00.536Z,2.67
2023-04-22T21:27:27.735Z,2.20
2023-04-22T21:29:54.941Z,2.28
2023-04-22T21:32:21.955Z,2.30
2023-04-22T21:34:48.827Z,2.50
2023-04-22T21:37:15.797Z,2.35
2023-04-22T21:39:42.655Z,2.33
2023-04-22T21:42:09.624Z,2.42
2023-04-22T21:44:38.142Z,2.20
2023-04-22T21:47:05.965Z,2.30
2023-04-22T21:49:33.051Z,2.10
2023-04-22T21:51:59.977Z,2.17
2023-04-22T21:54:27.026Z,2.30
2023-04-22T21:56:53.967Z,2.10
2023-04-22T21:59:20.986Z,2.33
2023-04-22T22:01:48.032Z,2.33
2023-04-22T22:04:15.952Z,2.00
2023-04-22T22:06:44.815Z,2.28
2023-04-22T22:09:12.468Z,2.25
2023-04-22T22:11:39.352Z,2.22
2023-04-22T22:14:06.335Z,2.22
2023-04-22T22:16:33.537Z,2.50
2023-04-22T22:19:02.788Z,2.22
2023-04-22T22:21:29.903Z,2.03
2023-04-22T22:23:57.884Z,2.00
2023-04-22T22:26:24.894Z,1.90
2023-04-22T22:28:51.790Z,2.00
2023-04-22T22:31:18.800Z,2.20
2023-04-22T22:33:45.911Z,2.28
2023-04-22T22:36:13.682Z,2.10
2023-04-22T22:38:40.641Z,2.72
2023-04-22T22:41:07.511Z,2.20
2023-04-22T22:43:34.428Z,2.28
2023-04-22T22:46:01.603Z,2.00
2023-04-22T22:48:28.722Z,2.20
2023-04-22T22:50:56.845Z,1.98
2023-04-22T22:53:23.698Z,2.22
2023-04-22T22:55:50.764Z,2.20
2023-04-22T22:58:17.679Z,2.17
2023-04-22T23:00:44.609Z,2.38
2023-04-22T23:03:11.662Z,2.05
2023-04-22T23:05:38.835Z,2.15
2023-04-22T23:08:05.901Z,2.53
2023-04-22T23:10:32.815Z,2.10
2023-04-22T23:12:59.744Z,2.17
2023-04-22T23:15:26.590Z,2.05
2023-04-22T23:17:53.448Z,2.30
2023-04-22T23:20:21.972Z,2.75
2023-04-22T23:22:51.157Z,2.70
2023-04-22T23:25:18.368Z,2.50
2023-04-22T23:27:45.973Z,2.67
2023-04-22T23:30:13.318Z,2.25
2023-04-22T23:32:41.057Z,2.78
2023-04-22T23:35:10.261Z,3.05
2023-04-22T23:37:38.255Z,2.70
2023-04-22T23:40:06.891Z,2.80
2023-04-22T23:42:33.802Z,2.67
2023-04-22T23:45:00.683Z,2.80
2023-04-22T23:47:27.827Z,2.53
2023-04-22T23:49:54.732Z,2.40
2023-04-22T23:52:21.677Z,2.22
2023-04-22T23:54:51.328Z,2.60
2023-04-22T23:57:18.529Z,2.80
2023-04-22T23:59:45.735Z,2.55
